Time;durP1;ratioP1;P1;durP2;ratioP2;P2;SDS_P1;SDS_P2;PMS_P1;PMS_P2;Temp;Humidity;BMP_temperature;BMP_pressure;BME280_temperature;BME280_humidity;BME280_pressure;Samples;Min_cycle;Max_cycle;Signal;HPM_P1;HPM_P2
2024/04/11 00:01:08;;;;;;;0.20;0.20;;;;;;;10.35;73.69;102761.66;5526354;26;20008;-45
2024/04/11 00:03:36;;;;;;;0.20;0.20;;;;;;;10.37;74.00;102760.09;5525281;26;20065;-45
2024/04/11 00:06:02;;;;;;;0.20;0.20;;;;;;;10.38;74.33;102754.16;5526450;26;19997;-49
2024/04/11 00:08:27;;;;;;;0.20;0.20;;;;;;;10.40;73.78;102754.25;5525959;26;19993;-50
2024/04/11 00:10:53;;;;;;;0.20;0.20;;;;;;;10.41;73.60;102754.31;5525471;26;20008;-49
2024/04/11 00:13:18;;;;;;;0.20;0.20;;;;;;;10.42;72.93;102753.53;5526026;26;19997;-50
2024/04/11 00:15:44;;;;;;;0.20;0.20;;;;;;;10.44;73.60;102757.06;5525024;26;20005;-48
2024/04/11 00:18:10;;;;;;;0.20;0.20;;;;;;;10.44;73.71;102751.91;5525103;26;20013;-50
2024/04/11 00:20:35;;;;;;;0.20;0.20;;;;;;;10.44;73.32;102751.03;5526115;26;20363;-49
2024/04/11 00:23:01;;;;;;;0.10;0.10;;;;;;;10.46;73.08;102739.16;5525997;26;19994;-49
2024/04/11 00:25:26;;;;;;;0.20;0.20;;;;;;;10.47;73.34;102736.66;5524992;26;19997;-49
2024/04/11 00:27:51;;;;;;;0.20;0.20;;;;;;;10.50;73.08;102730.81;5526325;26;20005;-46
2024/04/11 00:30:17;;;;;;;0.22;0.22;;;;;;;10.51;72.23;102720.56;5526250;26;19993;-49
2024/04/11 00:32:42;;;;;;;0.20;0.20;;;;;;;10.53;72.59;102713.84;5525331;26;20016;-49
2024/04/11 00:35:09;;;;;;;0.20;0.20;;;;;;;10.56;71.81;102719.94;5526188;26;20008;-45
2024/04/11 00:37:36;;;;;;;0.20;0.20;;;;;;;10.56;72.22;102718.28;5524728;26;19997;-49
2024/04/11 00:40:02;;;;;;;0.10;0.10;;;;;;;10.59;71.87;102713.28;5525850;26;19998;-48
2024/04/11 00:42:28;;;;;;;0.20;0.20;;;;;;;10.63;71.29;102711.78;5525648;26;20222;-49
2024/04/11 00:44:53;;;;;;;0.20;0.20;;;;;;;10.67;70.52;102718.91;5525028;26;20122;-48
2024/04/11 00:47:20;;;;;;;0.20;0.20;;;;;;;10.71;69.63;102721.75;5525990;26;20001;-49
2024/04/11 00:49:45;;;;;;;0.20;0.20;;;;;;;10.73;70.39;102727.00;5526048;26;20004;-49
2024/04/11 00:52:10;;;;;;;0.17;0.17;;;;;;;10.76;69.99;102734.91;5524765;26;19989;-49
2024/04/11 00:54:36;;;;;;;0.20;0.20;;;;;;;10.79;69.59;102737.66;5525196;26;19993;-49
2024/04/11 00:57:07;;;;;;;0.20;0.20;;;;;;;10.81;69.98;102736.09;5525495;26;20425;-48
2024/04/11 00:59:34;;;;;;;0.20;0.20;;;;;;;10.82;69.83;102740.44;5523617;26;20022;-49
2024/04/11 01:01:59;;;;;;;0.20;0.20;;;;;;;10.84;69.62;102743.97;5525367;26;19998;-45
2024/04/11 01:04:25;;;;;;;0.10;0.10;;;;;;;10.89;68.44;102740.81;5524601;26;20456;-47
2024/04/11 01:09:54;;;;;;;0.20;0.20;;;;;;;10.96;68.60;102753.25;5525133;26;20004;-46
2024/04/11 01:12:21;;;;;;;0.20;0.20;;;;;;;10.94;68.59;102752.28;5524416;26;19989;-45
2024/04/11 01:14:51;;;;;;;0.20;0.20;;;;;;;10.95;68.32;102747.22;5524771;26;20333;-46
2024/04/11 01:17:17;;;;;;;0.10;0.10;;;;;;;10.97;67.59;102749.88;5525086;26;20441;-45
2024/04/11 01:19:49;;;;;;;0.20;0.20;;;;;;;10.97;67.68;102744.72;5524966;26;20058;-46
2024/04/11 01:22:17;;;;;;;0.10;0.10;;;;;;;11.00;67.79;102737.16;5525231;26;20004;-46
2024/04/11 01:24:42;;;;;;;0.20;0.20;;;;;;;10.98;68.82;102726.75;5524996;26;20444;-46
2024/04/11 01:27:10;;;;;;;0.20;0.20;;;;;;;10.98;68.49;102731.03;5524016;26;20109;-46
2024/04/11 01:29:36;;;;;;;0.20;0.20;;;;;;;10.98;67.88;102721.59;5524644;26;20005;-45
2024/04/11 01:32:04;;;;;;;0.20;0.20;;;;;;;10.99;67.98;102718.22;5524968;26;20069;-47
2024/04/11 01:34:32;;;;;;;0.10;0.10;;;;;;;11.01;68.54;102711.47;5523750;26;19997;-46
2024/04/11 01:36:58;;;;;;;0.20;0.20;;;;;;;10.99;68.64;102709.59;5525250;26;20041;-49
2024/04/11 01:39:24;;;;;;;0.20;0.20;;;;;;;11.01;68.72;102700.22;5523993;26;19994;-45
2024/04/11 01:41:49;;;;;;;0.20;0.20;;;;;;;11.01;67.97;102692.50;5524070;26;20001;-45
2024/04/11 01:44:14;;;;;;;0.20;0.20;;;;;;;11.03;67.53;102694.34;5524478;26;19997;-49
2024/04/11 01:46:40;;;;;;;0.20;0.20;;;;;;;11.04;66.99;102700.44;5524639;26;20008;-48
2024/04/11 01:49:05;;;;;;;0.20;0.20;;;;;;;11.03;68.07;102704.69;5523991;26;19997;-50
2024/04/11 01:51:30;;;;;;;0.20;0.20;;;;;;;11.03;68.24;102704.69;5524410;26;20022;-49
2024/04/11 01:53:56;;;;;;;0.20;0.20;;;;;;;11.03;67.74;102703.81;5524571;26;20501;-49
2024/04/11 01:56:21;;;;;;;0.20;0.20;;;;;;;11.03;67.96;102694.34;5523627;26;20008;-48
2024/04/11 01:58:47;;;;;;;0.20;0.20;;;;;;;11.04;67.51;102703.88;5524285;26;20453;-50
2024/04/11 02:01:13;;;;;;;0.20;0.20;;;;;;;11.03;67.59;102704.69;5523344;25;20012;-49
2024/04/11 02:03:39;;;;;;;0.20;0.20;;;;;;;11.03;68.34;102708.97;5522934;25;20034;-49
2024/04/11 02:06:07;;;;;;;0.20;0.20;;;;;;;11.02;68.47;102723.53;5524458;25;19993;-48
2024/04/11 02:08:33;;;;;;;0.20;0.20;;;;;;;11.03;68.01;102719.28;5523898;25;20065;-50
2024/04/11 02:10:58;;;;;;;0.20;0.20;;;;;;;11.04;68.03;102715.91;5524768;25;20415;-50
2024/04/11 02:13:23;;;;;;;0.20;0.20;;;;;;;11.02;68.31;102699.44;5527906;25;19993;-49
2024/04/11 02:15:48;;;;;;;0.20;0.20;;;;;;;11.01;68.48;102693.41;5528144;25;20423;-49
2024/04/11 02:18:14;;;;;;;0.20;0.20;;;;;;;11.01;67.79;102698.56;5527127;25;20005;-49
2024/04/11 02:20:40;;;;;;;0.20;0.20;;;;;;;11.01;68.31;102697.66;5527716;25;20397;-50
2024/04/11 02:23:06;;;;;;;0.20;0.20;;;;;;;11.01;67.75;102687.34;5526485;25;20445;-49
2024/04/11 02:25:31;;;;;;;0.20;0.20;;;;;;;11.00;67.92;102682.97;5527993;25;20258;-49
2024/04/11 02:27:57;;;;;;;0.20;0.20;;;;;;;10.98;69.07;102689.75;5527862;25;19998;-48
2024/04/11 02:30:22;;;;;;;0.20;0.20;;;;;;;10.97;68.31;102700.84;5526566;25;19994;-50
2024/04/11 02:32:48;;;;;;;0.20;0.20;;;;;;;10.95;67.67;102702.44;5528208;25;20005;-49
2024/04/11 02:35:14;;;;;;;0.30;0.30;;;;;;;10.92;68.66;102720.34;5527682;25;19993;-49
2024/04/11 02:37:40;;;;;;;0.30;0.30;;;;;;;10.90;68.48;102716.78;5526871;25;19993;-50
2024/04/11 02:40:07;;;;;;;0.20;0.20;;;;;;;10.84;69.59;102709.56;5527506;25;19993;-50
2024/04/11 02:42:38;;;;;;;0.20;0.20;;;;;;;10.82;70.12;102722.41;5527643;25;19997;-50
2024/04/11 02:45:07;;;;;;;0.20;0.20;;;;;;;10.81;69.73;102701.69;5526753;25;20008;-46
2024/04/11 02:47:33;;;;;;;0.20;0.20;;;;;;;10.80;70.39;102703.34;5527220;25;19997;-50
2024/04/11 02:49:58;;;;;;;0.20;0.20;;;;;;;10.80;69.68;102703.34;5527810;25;20008;-50
2024/04/11 02:52:24;;;;;;;0.20;0.20;;;;;;;10.82;70.84;102713.75;5526294;25;20325;-49
2024/04/11 02:54:50;;;;;;;0.20;0.20;;;;;;;10.84;70.18;102723.34;5527872;25;20429;-50
2024/04/11 02:57:16;;;;;;;0.20;0.20;;;;;;;10.83;70.33;102721.59;5527184;25;19999;-49
2024/04/11 02:59:41;;;;;;;0.20;0.20;;;;;;;10.83;71.28;102721.59;5526902;25;20417;-49
2024/04/11 03:02:08;;;;;;;0.20;0.20;;;;;;;10.82;70.95;102709.50;5527169;25;20004;-50
2024/04/11 03:04:33;;;;;;;0.23;0.23;;;;;;;10.80;71.88;102705.91;5526834;25;20004;-50
2024/04/11 03:06:58;;;;;;;0.20;0.20;;;;;;;10.76;71.96;102703.97;5526636;25;19997;-49
2024/04/11 03:09:24;;;;;;;0.20;0.20;;;;;;;10.72;72.74;102707.19;5526775;25;20001;-47
2024/04/11 03:11:49;;;;;;;0.20;0.20;;;;;;;10.67;72.44;102708.59;5527434;25;19997;-50
2024/04/11 03:14:14;;;;;;;0.20;0.20;;;;;;;10.65;72.87;102710.19;5526570;25;19993;-50
2024/04/11 03:16:40;;;;;;;0.20;0.20;;;;;;;10.62;73.48;102695.41;5526971;25;20008;-50
2024/04/11 03:19:06;;;;;;;0.13;0.13;;;;;;;10.61;73.50;102695.31;5526678;25;20069;-50
2024/04/11 03:21:31;;;;;;;0.20;0.20;;;;;;;10.58;74.07;102705.47;5526099;25;19997;-49
2024/04/11 03:23:56;;;;;;;0.20;0.20;;;;;;;10.60;74.10;102701.28;5527072;25;20074;-48
2024/04/11 03:26:22;;;;;;;0.20;0.20;;;;;;;10.62;73.73;102699.69;5525829;25;20009;-49
2024/04/11 03:28:47;;;;;;;0.20;0.20;;;;;;;10.63;74.18;102706.63;5526386;25;19993;-49
2024/04/11 03:31:17;;;;;;;0.30;0.30;;;;;;;10.65;74.15;102705.03;5526886;25;19994;-50
2024/04/11 03:33:42;;;;;;;0.30;0.30;;;;;;;10.65;74.86;102700.78;5525715;25;20006;-48
2024/04/11 03:36:12;;;;;;;0.20;0.20;;;;;;;10.67;74.61;102698.28;5527078;25;20005;-49
2024/04/11 03:38:39;;;;;;;0.30;0.30;;;;;;;10.66;74.53;102699.94;5526664;25;20450;-50
2024/04/11 03:41:07;;;;;;;0.28;0.28;;;;;;;10.69;74.48;102701.81;5525893;25;20005;-50
2024/04/11 03:43:34;;;;;;;0.20;0.20;;;;;;;10.67;74.33;102694.00;5526643;25;20025;-50
2024/04/11 03:46:11;;;;;;;0.20;0.20;;;;;;;10.68;74.67;102697.50;5526781;25;20073;-50
2024/04/11 03:48:38;;;;;;;;;;;;;;;10.80;74.39;102682.72;5526349;25;20033;-50
2024/04/11 03:51:14;;;;;;;0.20;0.20;;;;;;;10.63;75.47;102686.00;5527093;25;19930;-49
2024/04/11 03:53:43;;;;;;;0.20;0.20;;;;;;;10.57;75.99;102688.22;5526085;25;20728;-51
2024/04/11 03:56:09;;;;;;;0.20;0.20;;;;;;;10.53;76.42;102680.31;5525892;25;20250;-51
2024/04/11 03:58:37;;;;;;;0.20;0.20;;;;;;;10.51;76.29;102684.47;5526356;25;20005;-51
2024/04/11 04:01:12;;;;;;;0.20;0.20;;;;;;;10.51;76.81;102676.75;5526374;25;20009;-50
2024/04/11 04:03:37;;;;;;;0.20;0.20;;;;;;;10.51;76.42;102674.16;5525566;25;20467;-50
2024/04/11 04:06:03;;;;;;;0.20;0.20;;;;;;;10.48;76.70;102681.72;5526007;25;20005;-50
2024/04/11 04:08:28;;;;;;;0.20;0.20;;;;;;;10.47;77.60;102679.94;5526146;25;20425;-52
2024/04/11 04:10:54;;;;;;;0.20;0.20;;;;;;;10.47;77.51;102673.88;5525902;25;20352;-51
2024/04/11 04:13:20;;;;;;;0.20;0.20;;;;;;;10.46;77.79;102661.81;5526189;25;19993;-48
2024/04/11 04:15:45;;;;;;;0.20;0.20;;;;;;;10.44;78.05;102669.44;5525589;25;20441;-50
2024/04/11 04:18:12;;;;;;;0.20;0.20;;;;;;;10.44;78.52;102663.41;5526029;25;20012;-50
2024/04/11 04:20:42;;;;;;;0.10;0.10;;;;;;;10.45;77.96;102653.16;5526485;25;20005;-51
2024/04/11 04:23:10;;;;;;;0.20;0.20;;;;;;;10.43;78.39;102662.53;5525095;25;20483;-51
2024/04/11 04:25:38;;;;;;;0.20;0.20;;;;;;;10.45;79.01;102658.31;5526064;25;20005;-50
2024/04/11 04:28:07;;;;;;;0.20;0.20;;;;;;;10.47;79.22;102658.41;5525030;25;20002;-51
2024/04/11 04:30:33;;;;;;;0.20;0.20;;;;;;;10.49;78.58;102660.28;5525169;26;20094;-51
2024/04/11 04:32:59;;;;;;;0.20;0.20;;;;;;;10.51;79.30;102661.28;5525554;26;20004;-51
2024/04/11 04:35:28;;;;;;;0.17;0.17;;;;;;;10.50;79.87;102656.91;5524854;26;19994;-51
2024/04/11 04:37:53;;;;;;;0.20;0.20;;;;;;;10.50;79.98;102649.19;5525300;26;20005;-51
2024/04/11 04:40:19;;;;;;;0.20;0.20;;;;;;;10.48;80.59;102645.63;5525743;26;20005;-51
2024/04/11 04:42:44;;;;;;;0.20;0.20;;;;;;;10.50;80.68;102653.47;5525651;26;19993;-51
2024/04/11 04:45:12;;;;;;;0.20;0.20;;;;;;;10.49;80.83;102659.41;5524929;26;20068;-51
2024/04/11 04:47:40;;;;;;;0.20;0.20;;;;;;;10.51;81.51;102645.81;5525178;26;20016;-50
2024/04/11 04:50:06;;;;;;;0.20;0.20;;;;;;;10.53;82.12;102648.47;5525269;26;20319;-51
2024/04/11 04:52:32;;;;;;;0.20;0.20;;;;;;;10.49;82.91;102651.66;5524571;26;20432;-51
2024/04/11 04:54:58;;;;;;;0.20;0.20;;;;;;;10.50;84.13;102643.16;5525554;26;20005;-50
2024/04/11 04:57:25;;;;;;;0.20;0.20;;;;;;;10.49;84.15;102642.22;5525063;26;20072;-50
2024/04/11 04:59:51;;;;;;;0.20;0.20;;;;;;;10.50;85.07;102643.16;5524844;26;20009;-51
2024/04/11 05:02:17;;;;;;;0.20;0.20;;;;;;;10.50;86.14;102644.03;5525768;26;19999;-50
2024/04/11 05:04:45;;;;;;;0.30;0.30;;;;;;;10.52;86.34;102642.44;5524875;26;19993;-51
2024/04/11 05:07:12;;;;;;;;;;;;;;;10.65;85.62;102651.78;5525384;26;20061;-51
2024/04/11 05:09:37;;;;;;;0.23;0.23;;;;;;;10.54;87.20;102651.13;5525226;26;19923;-50
2024/04/11 05:12:05;;;;;;;0.20;0.20;;;;;;;10.54;88.37;102651.13;5524327;26;20254;-51
2024/04/11 05:14:38;;;;;;;0.20;0.20;;;;;;;10.56;88.68;102658.97;5525081;26;19990;-50
2024/04/11 05:17:10;;;;;;;0.20;0.20;;;;;;;10.56;89.49;102664.13;5524923;26;19994;-50
2024/04/11 05:19:35;;;;;;;0.20;0.20;;;;;;;10.57;89.41;102665.88;5524157;26;20069;-50
2024/04/11 05:22:01;;;;;;;0.30;0.30;;;;;;;10.59;90.24;102671.13;5525060;26;20398;-50
2024/04/11 05:24:26;;;;;;;0.20;0.20;;;;;;;10.58;90.26;102666.81;5524647;26;19994;-51
2024/04/11 05:26:51;;;;;;;0.20;0.20;;;;;;;10.61;89.92;102672.13;5524038;26;20008;-48
2024/04/11 05:29:16;;;;;;;0.20;0.20;;;;;;;10.62;90.66;102679.06;5525025;26;19994;-50
2024/04/11 05:31:42;;;;;;;0.17;0.17;;;;;;;10.63;90.53;102689.47;5524749;26;19998;-51
2024/04/11 05:34:13;;;;;;;0.17;0.17;;;;;;;10.65;91.12;102689.56;5524327;26;19998;-51
2024/04/11 05:36:39;;;;;;;0.20;0.20;;;;;;;10.66;91.55;102691.34;5524296;26;20377;-50
2024/04/11 05:39:05;;;;;;;0.20;0.20;;;;;;;10.67;91.90;102695.69;5524392;26;20345;-50
2024/04/11 05:41:30;;;;;;;0.20;0.20;;;;;;;10.69;91.47;102702.72;5523912;26;20030;-51
2024/04/11 05:43:58;;;;;;;0.20;0.20;;;;;;;10.70;92.33;102703.59;5523786;26;20102;-50
2024/04/11 05:46:24;;;;;;;0.20;0.20;;;;;;;10.72;92.27;102707.19;5526733;26;19998;-50
2024/04/11 05:48:50;;;;;;;0.20;0.20;;;;;;;10.74;92.24;102715.88;5527689;26;19997;-51
2024/04/11 05:51:20;;;;;;;0.20;0.20;;;;;;;10.74;91.86;102715.88;5528461;26;20009;-51
2024/04/11 05:53:46;;;;;;;0.20;0.20;;;;;;;10.78;92.13;102720.44;5528400;26;20012;-51
2024/04/11 05:56:13;;;;;;;0.13;0.13;;;;;;;10.80;92.54;102723.09;5527672;26;20401;-50
2024/04/11 05:58:39;;;;;;;0.20;0.20;;;;;;;10.81;92.12;102730.03;5527910;26;20001;-50
2024/04/11 06:01:06;;;;;;;0.20;0.20;;;;;;;10.82;92.65;102734.38;5527579;26;20008;-48
2024/04/11 06:03:34;;;;;;;0.20;0.20;;;;;;;10.81;93.22;102733.50;5527611;26;20021;-51
2024/04/11 06:05:59;;;;;;;0.20;0.20;;;;;;;10.82;93.41;102735.28;5527907;26;19993;-50
2024/04/11 06:08:25;;;;;;;0.20;0.20;;;;;;;10.84;92.96;102732.78;5526639;26;19997;-51
2024/04/11 06:10:51;;;;;;;0.20;0.20;;;;;;;10.84;93.99;102738.81;5528082;26;20410;-51
2024/04/11 06:13:20;;;;;;;0.20;0.20;;;;;;;10.85;93.96;102743.19;5527818;26;19997;-51
2024/04/11 06:15:47;;;;;;;0.20;0.20;;;;;;;10.85;94.20;102750.94;5526988;26;20005;-51
2024/04/11 06:18:14;;;;;;;0.20;0.20;;;;;;;10.85;94.72;102744.91;5527705;26;20333;-50
2024/04/11 06:20:43;;;;;;;0.22;0.22;;;;;;;10.83;96.15;102749.97;5527737;26;20527;-50
2024/04/11 06:23:09;;;;;;;0.20;0.20;;;;;;;10.73;100.00;102751.91;5526560;26;20025;-50
2024/04/11 06:25:38;;;;;;;0.30;0.30;;;;;;;10.65;100.00;102756.59;5527316;26;20008;-51
2024/04/11 06:28:04;;;;;;;0.20;0.20;;;;;;;10.60;100.00;102758.00;5527230;26;20021;-47
2024/04/11 06:30:30;;;;;;;0.20;0.20;;;;;;;10.51;100.00;102756.66;5527084;26;19997;-51
2024/04/11 06:32:58;;;;;;;0.20;0.20;;;;;;;10.44;100.00;102756.19;5527743;26;20005;-50
2024/04/11 06:35:25;;;;;;;0.20;0.20;;;;;;;10.39;100.00;102763.63;5527128;26;20469;-51
2024/04/11 06:37:51;;;;;;;0.20;0.20;;;;;;;10.35;100.00;102761.66;5526945;26;20001;-48
2024/04/11 06:40:16;;;;;;;0.20;0.20;;;;;;;10.35;100.00;102761.66;5527472;26;19994;-51
2024/04/11 06:42:49;;;;;;;0.20;0.20;;;;;;;10.35;100.00;102761.66;5526947;26;20001;-50
2024/04/11 06:45:23;;;;;;;0.20;0.20;;;;;;;10.35;100.00;102761.66;5526782;26;19997;-50
2024/04/11 06:47:49;;;;;;;0.20;0.20;;;;;;;10.38;100.00;102757.59;5527825;26;20005;-53
2024/04/11 06:50:14;;;;;;;0.20;0.20;;;;;;;10.40;100.00;102765.44;5526956;26;19997;-50
2024/04/11 06:52:39;;;;;;;0.20;0.20;;;;;;;10.38;100.00;102762.75;5526698;26;19998;-51
2024/04/11 06:55:08;;;;;;;0.20;0.20;;;;;;;10.44;100.00;102767.38;5527380;26;19997;-51
2024/04/11 06:57:40;;;;;;;0.20;0.20;;;;;;;10.45;100.00;102758.88;5525280;26;20008;-50
2024/04/11 07:00:14;;;;;;;0.20;0.20;;;;;;;10.47;100.00;102758.94;5527092;26;20330;-51
2024/04/11 07:02:46;;;;;;;0.20;0.20;;;;;;;10.49;100.00;102745.34;5526779;26;20005;-50
2024/04/11 07:05:13;;;;;;;0.20;0.20;;;;;;;10.52;100.00;102740.41;5526473;26;20113;-50
2024/04/11 07:07:45;;;;;;;0.20;0.20;;;;;;;10.59;100.00;102740.75;5526899;26;20672;-50
2024/04/11 07:10:24;;;;;;;0.20;0.20;;;;;;;10.64;100.00;102744.50;5527065;26;20128;-51
2024/04/11 07:12:52;;;;;;;0.20;0.20;;;;;;;10.68;100.00;102746.47;5526934;26;20005;-50
2024/04/11 07:15:18;;;;;;;0.20;0.20;;;;;;;10.65;100.00;102749.75;5527137;26;20504;-51
2024/04/11 07:17:56;;;;;;;0.30;0.30;;;;;;;10.65;100.00;102756.59;5526906;26;20306;-51
2024/04/11 07:20:26;;;;;;;0.20;0.20;;;;;;;10.66;100.00;102754.09;5525992;26;20369;-50
2024/04/11 07:22:54;;;;;;;0.20;0.20;;;;;;;10.70;100.00;102755.19;5526783;26;19997;-48
2024/04/11 07:25:19;;;;;;;;;;;;;;;10.85;100.00;102762.94;5527051;26;20002;-48
2024/04/11 07:27:46;;;;;;;0.20;0.20;;;;;;;10.75;100.00;102765.78;5526158;26;19927;-51
2024/04/11 07:30:11;;;;;;;0.20;0.20;;;;;;;10.76;100.00;102771.03;5526354;26;20005;-48
2024/04/11 07:32:40;;;;;;;0.17;0.17;;;;;;;10.70;100.00;102770.66;5525741;26;19997;-51
2024/04/11 07:35:05;;;;;;;0.28;0.28;;;;;;;10.77;100.00;102777.06;5526492;26;20001;-51
2024/04/11 07:37:32;;;;;;;0.20;0.20;;;;;;;10.78;100.00;102784.00;5526360;26;19994;-50
2024/04/11 07:40:00;;;;;;;0.20;0.20;;;;;;;10.74;100.00;102782.94;5525855;26;19994;-51
2024/04/11 07:42:48;;;;;;;0.20;0.20;;;;;;;10.75;100.00;102789.88;5525966;26;20071;-50
2024/04/11 07:45:17;;;;;;;0.20;0.20;;;;;;;10.80;100.00;102793.63;5525981;26;20457;-50
2024/04/11 07:47:43;;;;;;;0.20;0.20;;;;;;;10.86;100.00;102804.31;5525672;26;19989;-52
2024/04/11 07:50:10;;;;;;;0.30;0.30;;;;;;;10.87;100.00;102806.09;5525410;26;20069;-51
2024/04/11 07:52:36;;;;;;;0.20;0.20;;;;;;;10.89;100.00;102813.03;5525771;26;20041;-50
2024/04/11 07:55:01;;;;;;;0.20;0.20;;;;;;;10.87;100.00;102815.50;5526009;26;19999;-51
2024/04/11 07:57:28;;;;;;;0.20;0.20;;;;;;;10.85;100.00;102823.16;5525841;26;19989;-50
2024/04/11 07:59:55;;;;;;;0.20;0.20;;;;;;;10.80;100.00;102829.72;5526428;26;19989;-49
2024/04/11 08:02:21;;;;;;;0.20;0.20;;;;;;;10.76;100.00;102827.78;5525456;26;20001;-49
2024/04/11 08:04:46;;;;;;;0.20;0.20;;;;;;;10.78;100.00;102831.34;5526325;26;19989;-49
2024/04/11 08:07:12;;;;;;;0.20;0.20;;;;;;;10.77;100.00;102836.38;5526132;26;20441;-51
2024/04/11 08:09:55;;;;;;;0.20;0.20;;;;;;;10.80;100.00;102840.03;5523778;26;19989;-50
2024/04/11 08:12:20;;;;;;;0.20;0.20;;;;;;;10.85;100.00;102840.34;5526280;26;19993;-48
2024/04/11 08:14:46;;;;;;;0.20;0.20;;;;;;;10.88;100.00;102848.25;5525488;26;20005;-51
2024/04/11 08:17:13;;;;;;;0.20;0.20;;;;;;;10.94;100.00;102847.75;5526119;26;20008;-46
2024/04/11 08:19:39;;;;;;;0.20;0.20;;;;;;;10.97;100.00;102853.09;5526185;26;20026;-51
2024/04/11 08:22:05;;;;;;;0.10;0.10;;;;;;;10.96;100.00;102851.28;5525184;26;20396;-50
2024/04/11 08:24:30;;;;;;;0.20;0.20;;;;;;;10.99;100.00;102854.97;5525804;26;20061;-51
2024/04/11 08:26:55;;;;;;;0.20;0.20;;;;;;;11.01;100.00;102862.78;5525693;26;20406;-51
2024/04/11 08:29:23;;;;;;;0.20;0.20;;;;;;;11.02;100.00;102862.00;5524442;26;20012;-47
2024/04/11 08:31:49;;;;;;;0.17;0.17;;;;;;;11.02;100.00;102867.16;5526004;26;20008;-51
2024/04/11 08:34:14;;;;;;;0.20;0.20;;;;;;;11.07;100.00;102877.75;5525103;26;20004;-50
2024/04/11 08:36:40;;;;;;;0.20;0.20;;;;;;;11.06;100.00;102884.59;5525480;26;20407;-50
2024/04/11 08:39:05;;;;;;;0.20;0.20;;;;;;;11.08;100.00;102885.59;5526006;26;20382;-51
2024/04/11 08:41:31;;;;;;;0.20;0.20;;;;;;;11.08;100.00;102882.09;5525387;26;20350;-51
2024/04/11 08:43:56;;;;;;;0.20;0.20;;;;;;;11.11;100.00;102888.34;5525046;26;20005;-50
2024/04/11 08:46:22;;;;;;;0.10;0.10;;;;;;;11.13;100.00;102880.69;5525285;26;20025;-51
2024/04/11 08:48:47;;;;;;;0.20;0.20;;;;;;;11.14;100.00;102883.38;5525644;26;20330;-52
2024/04/11 08:51:20;;;;;;;0.20;0.20;;;;;;;11.22;100.00;102895.84;5525053;26;20008;-49
2024/04/11 08:53:50;;;;;;;0.20;0.20;;;;;;;11.32;100.00;102893.00;5525635;26;19997;-51
2024/04/11 08:56:16;;;;;;;0.20;0.20;;;;;;;11.33;100.00;102890.50;5525314;26;20008;-50
2024/04/11 08:58:43;;;;;;;0.20;0.20;;;;;;;11.35;100.00;102888.91;5525051;26;20158;-49
2024/04/11 09:01:09;;;;;;;0.20;0.20;;;;;;;11.38;100.00;102887.34;5525666;26;20436;-51
2024/04/11 09:03:35;;;;;;;0.13;0.13;;;;;;;11.39;100.00;102876.19;5524745;26;20004;-51
2024/04/11 09:06:01;;;;;;;0.10;0.10;;;;;;;11.48;100.00;102885.38;5524958;26;19993;-50
2024/04/11 09:08:26;;;;;;;0.20;0.20;;;;;;;11.55;100.00;102885.72;5525157;26;20008;-50
2024/04/11 09:10:54;;;;;;;0.20;0.20;;;;;;;11.70;100.00;102889.22;5525137;26;19997;-51
2024/04/11 09:13:22;;;;;;;0.20;0.20;;;;;;;11.79;100.00;102900.06;5524929;26;20432;-48
2024/04/11 09:16:00;;;;;;;0.20;0.20;;;;;;;11.92;100.00;102901.66;5525168;26;20009;-50
2024/04/11 09:18:27;;;;;;;0.10;0.10;;;;;;;11.97;100.00;102900.25;5523961;26;19998;-50
2024/04/11 09:21:05;;;;;;;0.20;0.20;;;;;;;12.12;100.00;102904.50;5527657;26;20054;-51
2024/04/11 09:23:51;;;;;;;0.17;0.17;;;;;;;12.31;100.00;102906.44;5528466;26;20033;-50
2024/04/11 09:26:19;;;;;;;0.20;0.20;;;;;;;12.36;100.00;102910.16;5528167;26;20072;-51
2024/04/11 09:28:45;;;;;;;0.20;0.20;;;;;;;12.45;100.00;102905.50;5528505;26;20041;-50
2024/04/11 09:31:11;;;;;;;0.20;0.20;;;;;;;12.63;100.00;102915.09;5528131;26;20802;-49
2024/04/11 09:33:39;;;;;;;0.10;0.10;;;;;;;12.68;100.00;102916.22;5527903;26;20005;-51
2024/04/11 09:36:09;;;;;;;0.20;0.20;;;;;;;12.82;100.00;102907.50;5528446;26;20440;-50
2024/04/11 09:38:41;;;;;;;0.10;0.10;;;;;;;12.81;100.00;102918.66;5527861;26;20021;-50
2024/04/11 09:41:11;;;;;;;0.10;0.10;;;;;;;12.92;100.00;102920.91;5527579;26;20326;-51
2024/04/11 09:43:41;;;;;;;0.20;0.20;;;;;;;12.94;100.00;102920.19;5527852;26;19993;-51
2024/04/11 09:46:17;;;;;;;0.20;0.20;;;;;;;13.01;100.00;102921.41;5528306;26;20433;-51
2024/04/11 09:48:44;;;;;;;0.20;0.20;;;;;;;12.95;100.00;102915.91;5528295;26;19993;-51
2024/04/11 09:51:15;;;;;;;0.20;0.20;;;;;;;12.96;100.00;102917.69;5528217;26;19997;-51
2024/04/11 09:53:41;;;;;;;0.20;0.20;;;;;;;12.99;100.00;102928.22;5527422;26;20001;-51
2024/04/11 09:56:10;;;;;;;0.17;0.17;;;;;;;12.93;100.00;102922.72;5528611;26;20009;-51
2024/04/11 09:58:41;;;;;;;0.10;0.10;;;;;;;12.88;100.00;102935.38;5527794;26;19997;-51
2024/04/11 10:01:32;;;;;;;0.20;0.20;;;;;;;12.89;100.00;102937.19;5527764;26;20390;-51
2024/04/11 10:04:00;;;;;;;0.20;0.20;;;;;;;12.95;100.00;102941.78;5528043;26;19993;-51
2024/04/11 10:06:29;;;;;;;0.20;0.20;;;;;;;12.80;100.00;102945.31;5527415;26;19994;-51
2024/04/11 10:09:11;;;;;;;0.15;0.15;;;;;;;12.83;100.00;102942.94;5527441;26;20001;-50
2024/04/11 10:11:37;;;;;;;0.10;0.10;;;;;;;12.91;100.00;102942.44;5528127;26;19993;-51
2024/04/11 10:14:05;;;;;;;0.20;0.20;;;;;;;12.93;100.00;102928.75;5527925;26;20440;-51
2024/04/11 10:16:33;;;;;;;;;;;;;;;13.12;100.00;102943.56;5527678;26;20421;-51
2024/04/11 10:19:07;;;;;;;0.10;0.10;;;;;;;12.97;100.00;102945.34;5528264;26;19952;-51
2024/04/11 10:21:37;;;;;;;0.10;0.10;;;;;;;13.05;100.00;102950.94;5527120;26;19997;-50
2024/04/11 10:24:16;;;;;;;0.10;0.10;;;;;;;13.11;100.00;102949.56;5527770;26;20029;-50
2024/04/11 10:26:47;;;;;;;0.10;0.10;;;;;;;13.09;100.00;102942.53;5527272;26;20405;-50
2024/04/11 10:29:20;;;;;;;0.10;0.10;;;;;;;13.16;100.00;102962.75;5527118;26;20012;-51
2024/04/11 10:31:56;;;;;;;0.20;0.20;;;;;;;13.22;100.00;102963.09;5526912;26;20068;-51
2024/04/11 10:34:44;;;;;;;0.10;0.10;;;;;;;13.33;100.00;102966.22;5527025;26;19993;-51
2024/04/11 10:37:14;;;;;;;0.20;0.20;;;;;;;13.27;100.00;102968.50;5527186;26;20005;-51
2024/04/11 10:39:39;;;;;;;0.10;0.10;;;;;;;13.25;100.00;102970.13;5527193;26;20021;-50
2024/04/11 10:42:10;;;;;;;0.20;0.20;;;;;;;13.23;100.00;102980.38;5527253;26;20046;-50
2024/04/11 10:44:36;;;;;;;0.20;0.20;;;;;;;13.20;100.00;102977.63;5526477;26;20509;-50
2024/04/11 10:47:08;;;;;;;0.20;0.20;;;;;;;13.20;100.00;102994.88;5527660;26;20121;-50
2024/04/11 10:49:41;;;;;;;0.10;0.10;;;;;;;13.17;100.00;102980.97;5526281;26;20004;-50
2024/04/11 10:52:10;;;;;;;0.20;0.20;;;;;;;13.22;100.00;102975.13;5527493;26;20005;-49
2024/04/11 10:54:36;;;;;;;0.10;0.10;;;;;;;13.19;100.00;102986.22;5527048;26;20310;-51
2024/04/11 10:57:03;;;;;;;0.10;0.10;;;;;;;13.29;100.00;102985.00;5526584;26;20093;-50
2024/04/11 10:59:32;;;;;;;0.20;0.20;;;;;;;13.41;100.00;102989.97;5526945;26;19997;-51
2024/04/11 11:02:07;;;;;;;0.20;0.20;;;;;;;13.39;100.00;102994.16;5526979;26;20029;-51
2024/04/11 11:04:34;;;;;;;0.10;0.10;;;;;;;13.38;100.00;102985.53;5526382;26;20066;-50
2024/04/11 11:07:09;;;;;;;0.17;0.17;;;;;;;13.32;100.00;102987.75;5527389;26;20061;-50
2024/04/11 11:09:35;;;;;;;0.10;0.10;;;;;;;13.22;100.00;102990.66;5527042;26;19993;-51
2024/04/11 11:12:01;;;;;;;0.20;0.20;;;;;;;13.20;100.00;102992.31;5526552;26;19993;-51
2024/04/11 11:14:28;;;;;;;0.20;0.20;;;;;;;13.16;100.00;102994.72;5526666;26;20002;-50
2024/04/11 11:16:57;;;;;;;0.10;0.10;;;;;;;13.17;100.00;103003.38;5526734;26;20010;-51
2024/04/11 11:19:24;;;;;;;0.10;0.10;;;;;;;13.17;100.00;102998.22;5525787;26;20065;-51
2024/04/11 11:21:50;;;;;;;0.20;0.20;;;;;;;13.27;100.00;102996.97;5527327;26;20445;-51
2024/04/11 11:24:26;;;;;;;0.10;0.10;;;;;;;13.39;100.00;102995.09;5526747;26;19997;-51
2024/04/11 11:26:55;;;;;;;0.10;0.10;;;;;;;13.38;100.00;103001.06;5526503;26;20077;-50